sensor_id;sensor_type;location;lat;lon;timestamp;P1;durP1;ratioP1;P2;durP2;ratioP2
62693;SDS011;48759;52.544;13.418;2023-03-11T00:00:52;21.63;;;13.00;;
62693;SDS011;48759;52.544;13.418;2023-03-11T00:03:20;18.37;;;11.90;;
62693;SDS011;48759;52.544;13.418;2023-03-11T00:05:49;17.20;;;12.00;;
62693;SDS011;48759;52.544;13.418;2023-03-11T00:08:17;20.50;;;12.17;;
62693;SDS011;48759;52.544;13.418;2023-03-11T00:10:46;27.50;;;14.40;;
62693;SDS011;48759;52.544;13.418;2023-03-11T00:13:16;23.00;;;12.40;;
62693;SDS011;48759;52.544;13.418;2023-03-11T00:15:45;22.10;;;13.73;;
62693;SDS011;48759;52.544;13.418;2023-03-11T00:18:14;30.50;;;14.80;;
62693;SDS011;48759;52.544;13.418;2023-03-11T00:20:44;25.27;;;13.90;;
62693;SDS011;48759;52.544;13.418;2023-03-11T00:23:12;25.63;;;13.50;;
62693;SDS011;48759;52.544;13.418;2023-03-11T00:25:41;24.57;;;13.70;;
62693;SDS011;48759;52.544;13.418;2023-03-11T00:28:09;26.27;;;14.20;;
62693;SDS011;48759;52.544;13.418;2023-03-11T00:30:36;24.50;;;14.10;;
62693;SDS011;48759;52.544;13.418;2023-03-11T00:33:04;23.20;;;13.67;;
62693;SDS011;48759;52.544;13.418;2023-03-11T00:35:31;22.93;;;13.33;;
62693;SDS011;48759;52.544;13.418;2023-03-11T00:38:00;20.13;;;12.80;;
62693;SDS011;48759;52.544;13.418;2023-03-11T00:40:30;18.90;;;11.90;;
62693;SDS011;48759;52.544;13.418;2023-03-11T00:42:58;19.30;;;12.73;;
62693;SDS011;48759;52.544;13.418;2023-03-11T00:45:25;20.07;;;11.50;;
62693;SDS011;48759;52.544;13.418;2023-03-11T00:47:52;20.43;;;12.47;;
62693;SDS011;48759;52.544;13.418;2023-03-11T00:50:20;16.40;;;11.07;;
62693;SDS011;48759;52.544;13.418;2023-03-11T00:52:48;20.63;;;12.33;;
62693;SDS011;48759;52.544;13.418;2023-03-11T00:55:19;23.50;;;13.10;;
62693;SDS011;48759;52.544;13.418;2023-03-11T00:57:47;21.30;;;12.60;;
62693;SDS011;48759;52.544;13.418;2023-03-11T01:00:17;25.30;;;14.73;;
62693;SDS011;48759;52.544;13.418;2023-03-11T01:02:45;22.40;;;14.00;;
62693;SDS011;48759;52.544;13.418;2023-03-11T01:05:12;23.77;;;13.60;;
62693;SDS011;48759;52.544;13.418;2023-03-11T01:07:39;23.23;;;14.60;;
62693;SDS011;48759;52.544;13.418;2023-03-11T01:10:07;25.23;;;14.00;;
62693;SDS011;48759;52.544;13.418;2023-03-11T01:12:36;30.57;;;15.90;;
62693;SDS011;48759;52.544;13.418;2023-03-11T01:15:04;26.17;;;15.47;;
62693;SDS011;48759;52.544;13.418;2023-03-11T01:17:32;28.80;;;17.13;;
62693;SDS011;48759;52.544;13.418;2023-03-11T01:19:59;26.67;;;15.50;;
62693;SDS011;48759;52.544;13.418;2023-03-11T01:22:26;29.17;;;17.43;;
62693;SDS011;48759;52.544;13.418;2023-03-11T01:24:53;28.77;;;16.70;;
62693;SDS011;48759;52.544;13.418;2023-03-11T01:27:19;26.20;;;16.67;;
62693;SDS011;48759;52.544;13.418;2023-03-11T01:29:47;25.13;;;16.03;;
62693;SDS011;48759;52.544;13.418;2023-03-11T01:32:14;22.87;;;15.03;;
62693;SDS011;48759;52.544;13.418;2023-03-11T01:34:41;25.23;;;15.20;;
62693;SDS011;48759;52.544;13.418;2023-03-11T01:37:08;25.07;;;14.70;;
62693;SDS011;48759;52.544;13.418;2023-03-11T01:39:34;23.03;;;14.37;;
62693;SDS011;48759;52.544;13.418;2023-03-11T01:42:01;21.00;;;12.30;;
62693;SDS011;48759;52.544;13.418;2023-03-11T01:44:28;20.50;;;12.87;;
62693;SDS011;48759;52.544;13.418;2023-03-11T01:50:05;18.97;;;11.83;;
62693;SDS011;48759;52.544;13.418;2023-03-11T01:52:35;12.60;;;8.20;;
62693;SDS011;48759;52.544;13.418;2023-03-11T01:55:03;9.20;;;7.60;;
62693;SDS011;48759;52.544;13.418;2023-03-11T01:57:31;11.50;;;8.03;;
62693;SDS011;48759;52.544;13.418;2023-03-11T01:59:58;9.97;;;6.50;;
62693;SDS011;48759;52.544;13.418;2023-03-11T02:02:31;8.60;;;6.67;;
62693;SDS011;48759;52.544;13.418;2023-03-11T02:05:03;5.70;;;4.80;;
62693;SDS011;48759;52.544;13.418;2023-03-11T02:07:30;5.70;;;4.17;;
62693;SDS011;48759;52.544;13.418;2023-03-11T02:09:57;5.37;;;4.50;;
62693;SDS011;48759;52.544;13.418;2023-03-11T02:12:24;4.10;;;3.60;;
62693;SDS011;48759;52.544;13.418;2023-03-11T02:14:55;3.43;;;3.13;;
62693;SDS011;48759;52.544;13.418;2023-03-11T02:17:22;3.47;;;3.17;;
62693;SDS011;48759;52.544;13.418;2023-03-11T02:19:52;2.67;;;2.47;;
62693;SDS011;48759;52.544;13.418;2023-03-11T02:22:28;2.40;;;2.30;;
62693;SDS011;48759;52.544;13.418;2023-03-11T02:24:58;2.60;;;2.50;;
62693;SDS011;48759;52.544;13.418;2023-03-11T02:27:31;2.70;;;2.50;;
62693;SDS011;48759;52.544;13.418;2023-03-11T02:30:00;2.70;;;2.50;;
62693;SDS011;48759;52.544;13.418;2023-03-11T02:32:28;2.50;;;2.30;;
62693;SDS011;48759;52.544;13.418;2023-03-11T02:34:55;2.47;;;2.37;;
62693;SDS011;48759;52.544;13.418;2023-03-11T02:37:21;2.93;;;2.73;;
62693;SDS011;48759;52.544;13.418;2023-03-11T02:39:49;2.87;;;2.67;;
62693;SDS011;48759;52.544;13.418;2023-03-11T02:42:17;2.70;;;2.47;;
62693;SDS011;48759;52.544;13.418;2023-03-11T02:44:52;3.20;;;3.00;;
62693;SDS011;48759;52.544;13.418;2023-03-11T02:47:23;3.63;;;3.00;;
62693;SDS011;48759;52.544;13.418;2023-03-11T02:49:51;10.30;;;3.17;;
62693;SDS011;48759;52.544;13.418;2023-03-11T02:52:19;2.60;;;2.40;;
62693;SDS011;48759;52.544;13.418;2023-03-11T02:54:47;2.93;;;2.73;;
62693;SDS011;48759;52.544;13.418;2023-03-11T02:57:13;5.07;;;2.90;;
62693;SDS011;48759;52.544;13.418;2023-03-11T02:59:40;2.40;;;2.30;;
62693;SDS011;48759;52.544;13.418;2023-03-11T03:02:08;2.93;;;2.73;;
62693;SDS011;48759;52.544;13.418;2023-03-11T03:04:35;2.90;;;2.70;;
62693;SDS011;48759;52.544;13.418;2023-03-11T03:07:01;3.07;;;2.87;;
62693;SDS011;48759;52.544;13.418;2023-03-11T03:09:28;3.03;;;2.73;;
62693;SDS011;48759;52.544;13.418;2023-03-11T03:11:55;4.10;;;3.70;;
62693;SDS011;48759;52.544;13.418;2023-03-11T03:14:22;3.00;;;2.80;;
62693;SDS011;48759;52.544;13.418;2023-03-11T03:16:48;3.60;;;3.30;;
62693;SDS011;48759;52.544;13.418;2023-03-11T03:19:16;3.47;;;3.17;;
62693;SDS011;48759;52.544;13.418;2023-03-11T03:21:43;4.13;;;3.73;;
62693;SDS011;48759;52.544;13.418;2023-03-11T03:24:10;4.13;;;3.73;;
62693;SDS011;48759;52.544;13.418;2023-03-11T03:26:36;6.17;;;4.47;;
62693;SDS011;48759;52.544;13.418;2023-03-11T03:29:04;5.03;;;4.57;;
62693;SDS011;48759;52.544;13.418;2023-03-11T03:31:31;4.47;;;4.07;;
62693;SDS011;48759;52.544;13.418;2023-03-11T03:33:57;4.20;;;3.80;;
62693;SDS011;48759;52.544;13.418;2023-03-11T03:36:26;11.30;;;3.87;;
62693;SDS011;48759;52.544;13.418;2023-03-11T03:38:53;8.33;;;4.47;;
62693;SDS011;48759;52.544;13.418;2023-03-11T03:41:20;6.50;;;4.40;;
62693;SDS011;48759;52.544;13.418;2023-03-11T03:43:47;8.77;;;5.00;;
62693;SDS011;48759;52.544;13.418;2023-03-11T03:46:14;4.33;;;3.93;;
62693;SDS011;48759;52.544;13.418;2023-03-11T03:48:41;4.80;;;4.30;;
62693;SDS011;48759;52.544;13.418;2023-03-11T03:51:09;5.50;;;4.50;;
62693;SDS011;48759;52.544;13.418;2023-03-11T03:53:38;7.33;;;4.40;;
62693;SDS011;48759;52.544;13.418;2023-03-11T03:56:05;4.20;;;3.80;;
62693;SDS011;48759;52.544;13.418;2023-03-11T03:58:34;6.30;;;4.60;;
62693;SDS011;48759;52.544;13.418;2023-03-11T04:01:01;7.87;;;5.20;;
62693;SDS011;48759;52.544;13.418;2023-03-11T04:03:29;7.77;;;4.80;;
62693;SDS011;48759;52.544;13.418;2023-03-11T04:06:06;12.33;;;5.60;;
62693;SDS011;48759;52.544;13.418;2023-03-11T04:08:34;8.57;;;5.17;;
62693;SDS011;48759;52.544;13.418;2023-03-11T04:11:03;6.13;;;5.10;;
62693;SDS011;48759;52.544;13.418;2023-03-11T04:13:29;6.37;;;5.40;;
62693;SDS011;48759;52.544;13.418;2023-03-11T04:15:56;10.80;;;5.70;;
62693;SDS011;48759;52.544;13.418;2023-03-11T04:18:23;6.53;;;5.10;;
62693;SDS011;48759;52.544;13.418;2023-03-11T04:20:49;9.40;;;5.90;;
62693;SDS011;48759;52.544;13.418;2023-03-11T04:23:16;8.47;;;5.80;;
62693;SDS011;48759;52.544;13.418;2023-03-11T04:25:43;6.63;;;4.80;;
62693;SDS011;48759;52.544;13.418;2023-03-11T04:28:11;7.83;;;5.30;;
62693;SDS011;48759;52.544;13.418;2023-03-11T04:30:38;6.00;;;4.60;;
62693;SDS011;48759;52.544;13.418;2023-03-11T04:33:04;7.33;;;5.13;;
62693;SDS011;48759;52.544;13.418;2023-03-11T04:35:31;8.17;;;5.63;;
62693;SDS011;48759;52.544;13.418;2023-03-11T04:37:58;5.53;;;4.70;;
62693;SDS011;48759;52.544;13.418;2023-03-11T04:40:25;6.97;;;5.23;;
62693;SDS011;48759;52.544;13.418;2023-03-11T04:42:52;5.10;;;4.40;;
62693;SDS011;48759;52.544;13.418;2023-03-11T04:45:20;7.70;;;5.47;;
62693;SDS011;48759;52.544;13.418;2023-03-11T04:47:47;6.13;;;4.53;;
62693;SDS011;48759;52.544;13.418;2023-03-11T04:50:14;6.80;;;5.30;;
62693;SDS011;48759;52.544;13.418;2023-03-11T04:52:41;5.17;;;4.67;;
62693;SDS011;48759;52.544;13.418;2023-03-11T04:55:09;4.40;;;4.00;;
62693;SDS011;48759;52.544;13.418;2023-03-11T04:57:37;5.27;;;4.77;;
62693;SDS011;48759;52.544;13.418;2023-03-11T05:00:05;5.40;;;4.70;;
62693;SDS011;48759;52.544;13.418;2023-03-11T05:02:37;5.13;;;4.57;;
62693;SDS011;48759;52.544;13.418;2023-03-11T05:05:05;10.60;;;4.10;;
62693;SDS011;48759;52.544;13.418;2023-03-11T05:07:32;4.20;;;3.80;;
62693;SDS011;48759;52.544;13.418;2023-03-11T05:09:59;5.00;;;4.07;;
62693;SDS011;48759;52.544;13.418;2023-03-11T05:12:26;5.63;;;4.10;;
62693;SDS011;48759;52.544;13.418;2023-03-11T05:14:52;5.40;;;4.70;;
62693;SDS011;48759;52.544;13.418;2023-03-11T05:17:19;5.30;;;4.80;;
62693;SDS011;48759;52.544;13.418;2023-03-11T05:19:47;5.20;;;4.70;;
62693;SDS011;48759;52.544;13.418;2023-03-11T05:22:14;5.77;;;4.00;;
62693;SDS011;48759;52.544;13.418;2023-03-11T05:24:41;4.20;;;3.77;;
62693;SDS011;48759;52.544;13.418;2023-03-11T05:27:07;6.53;;;4.50;;
62693;SDS011;48759;52.544;13.418;2023-03-11T05:29:34;7.23;;;3.60;;
62693;SDS011;48759;52.544;13.418;2023-03-11T05:32:00;6.33;;;4.70;;
62693;SDS011;48759;52.544;13.418;2023-03-11T05:34:28;3.93;;;3.40;;
62693;SDS011;48759;52.544;13.418;2023-03-11T05:36:56;4.57;;;4.17;;
62693;SDS011;48759;52.544;13.418;2023-03-11T05:39:23;5.93;;;4.00;;
62693;SDS011;48759;52.544;13.418;2023-03-11T05:41:49;4.67;;;3.57;;
62693;SDS011;48759;52.544;13.418;2023-03-11T05:44:16;4.90;;;4.10;;
62693;SDS011;48759;52.544;13.418;2023-03-11T05:46:43;5.20;;;4.20;;
62693;SDS011;48759;52.544;13.418;2023-03-11T05:49:09;4.53;;;4.10;;
62693;SDS011;48759;52.544;13.418;2023-03-11T05:51:36;6.70;;;4.40;;
62693;SDS011;48759;52.544;13.418;2023-03-11T05:54:04;4.37;;;3.80;;
62693;SDS011;48759;52.544;13.418;2023-03-11T05:56:35;6.50;;;4.43;;
62693;SDS011;48759;52.544;13.418;2023-03-11T05:59:02;11.53;;;4.50;;
62693;SDS011;48759;52.544;13.418;2023-03-11T06:01:29;5.57;;;4.67;;
62693;SDS011;48759;52.544;13.418;2023-03-11T06:03:55;4.60;;;3.90;;
62693;SDS011;48759;52.544;13.418;2023-03-11T06:06:22;4.30;;;3.90;;
62693;SDS011;48759;52.544;13.418;2023-03-11T06:08:49;5.40;;;4.80;;
62693;SDS011;48759;52.544;13.418;2023-03-11T06:11:17;4.50;;;4.10;;
62693;SDS011;48759;52.544;13.418;2023-03-11T06:13:50;6.03;;;4.47;;
62693;SDS011;48759;52.544;13.418;2023-03-11T06:16:18;6.50;;;4.47;;
62693;SDS011;48759;52.544;13.418;2023-03-11T06:18:45;4.67;;;4.20;;
62693;SDS011;48759;52.544;13.418;2023-03-11T06:21:13;8.50;;;5.50;;
62693;SDS011;48759;52.544;13.418;2023-03-11T06:23:42;7.90;;;5.83;;
62693;SDS011;48759;52.544;13.418;2023-03-11T06:26:09;6.60;;;5.03;;
62693;SDS011;48759;52.544;13.418;2023-03-11T06:28:40;6.33;;;4.80;;
62693;SDS011;48759;52.544;13.418;2023-03-11T06:31:07;5.73;;;5.10;;
62693;SDS011;48759;52.544;13.418;2023-03-11T06:33:34;4.40;;;4.00;;
62693;SDS011;48759;52.544;13.418;2023-03-11T06:36:02;7.63;;;5.17;;
62693;SDS011;48759;52.544;13.418;2023-03-11T06:38:30;6.83;;;5.47;;
62693;SDS011;48759;52.544;13.418;2023-03-11T06:40:58;7.17;;;4.90;;
62693;SDS011;48759;52.544;13.418;2023-03-11T06:43:25;7.47;;;5.03;;
62693;SDS011;48759;52.544;13.418;2023-03-11T06:45:54;7.17;;;5.70;;
62693;SDS011;48759;52.544;13.418;2023-03-11T06:48:20;7.47;;;5.03;;
62693;SDS011;48759;52.544;13.418;2023-03-11T06:50:52;11.33;;;5.50;;
62693;SDS011;48759;52.544;13.418;2023-03-11T06:53:19;8.70;;;5.40;;
62693;SDS011;48759;52.544;13.418;2023-03-11T06:55:56;7.07;;;5.03;;
62693;SDS011;48759;52.544;13.418;2023-03-11T06:58:23;6.27;;;5.30;;
62693;SDS011;48759;52.544;13.418;2023-03-11T07:00:50;7.77;;;5.47;;
62693;SDS011;48759;52.544;13.418;2023-03-11T07:03:20;6.93;;;5.87;;
62693;SDS011;48759;52.544;13.418;2023-03-11T07:05:50;7.17;;;5.33;;
62693;SDS011;48759;52.544;13.418;2023-03-11T07:08:17;7.77;;;4.50;;
62693;SDS011;48759;52.544;13.418;2023-03-11T07:10:44;5.70;;;5.20;;
62693;SDS011;48759;52.544;13.418;2023-03-11T07:13:12;7.70;;;4.73;;
62693;SDS011;48759;52.544;13.418;2023-03-11T07:15:39;6.80;;;4.17;;
62693;SDS011;48759;52.544;13.418;2023-03-11T07:18:07;5.70;;;4.30;;
62693;SDS011;48759;52.544;13.418;2023-03-11T07:20:37;5.47;;;4.97;;
62693;SDS011;48759;52.544;13.418;2023-03-11T07:23:04;6.60;;;4.10;;
62693;SDS011;48759;52.544;13.418;2023-03-11T07:25:31;6.57;;;4.90;;
62693;SDS011;48759;52.544;13.418;2023-03-11T07:27:57;6.70;;;4.77;;
62693;SDS011;48759;52.544;13.418;2023-03-11T07:30:24;7.50;;;5.20;;
62693;SDS011;48759;52.544;13.418;2023-03-11T07:32:51;6.20;;;5.30;;
62693;SDS011;48759;52.544;13.418;2023-03-11T07:35:17;6.13;;;5.10;;
62693;SDS011;48759;52.544;13.418;2023-03-11T07:37:45;5.70;;;5.10;;
62693;SDS011;48759;52.544;13.418;2023-03-11T07:40:12;8.57;;;4.90;;
62693;SDS011;48759;52.544;13.418;2023-03-11T07:42:39;7.90;;;4.80;;
62693;SDS011;48759;52.544;13.418;2023-03-11T07:45:06;6.13;;;4.80;;
62693;SDS011;48759;52.544;13.418;2023-03-11T07:47:33;8.10;;;5.03;;
62693;SDS011;48759;52.544;13.418;2023-03-11T07:50:00;9.00;;;4.80;;
62693;SDS011;48759;52.544;13.418;2023-03-11T07:52:29;7.43;;;4.67;;
62693;SDS011;48759;52.544;13.418;2023-03-11T07:54:57;7.10;;;5.00;;
62693;SDS011;48759;52.544;13.418;2023-03-11T07:57:24;7.07;;;4.37;;
62693;SDS011;48759;52.544;13.418;2023-03-11T07:59:50;7.60;;;4.97;;
62693;SDS011;48759;52.544;13.418;2023-03-11T08:02:17;7.10;;;4.90;;
62693;SDS011;48759;52.544;13.418;2023-03-11T08:04:44;6.07;;;5.30;;
62693;SDS011;48759;52.544;13.418;2023-03-11T08:07:11;5.73;;;4.40;;
62693;SDS011;48759;52.544;13.418;2023-03-11T08:09:37;5.53;;;4.30;;
62693;SDS011;48759;52.544;13.418;2023-03-11T08:12:05;5.20;;;4.70;;
62693;SDS011;48759;52.544;13.418;2023-03-11T08:14:33;6.40;;;5.50;;
62693;SDS011;48759;52.544;13.418;2023-03-11T08:16:59;8.40;;;4.70;;
62693;SDS011;48759;52.544;13.418;2023-03-11T08:19:26;6.17;;;5.23;;
62693;SDS011;48759;52.544;13.418;2023-03-11T08:21:53;7.53;;;5.50;;
62693;SDS011;48759;52.544;13.418;2023-03-11T08:24:19;7.00;;;5.20;;
62693;SDS011;48759;52.544;13.418;2023-03-11T08:26:46;5.87;;;5.33;;
62693;SDS011;48759;52.544;13.418;2023-03-11T08:29:14;6.13;;;5.10;;
62693;SDS011;48759;52.544;13.418;2023-03-11T08:31:40;6.17;;;5.30;;
62693;SDS011;48759;52.544;13.418;2023-03-11T08:34:08;8.37;;;5.33;;
62693;SDS011;48759;52.544;13.418;2023-03-11T08:36:35;5.83;;;5.23;;
62693;SDS011;48759;52.544;13.418;2023-03-11T08:39:02;5.13;;;4.60;;
62693;SDS011;48759;52.544;13.418;2023-03-11T08:41:29;5.20;;;4.30;;
62693;SDS011;48759;52.544;13.418;2023-03-11T08:43:56;6.10;;;4.87;;
62693;SDS011;48759;52.544;13.418;2023-03-11T08:46:24;5.63;;;5.00;;
62693;SDS011;48759;52.544;13.418;2023-03-11T08:48:52;5.53;;;5.00;;
62693;SDS011;48759;52.544;13.418;2023-03-11T08:51:20;8.10;;;5.20;;
62693;SDS011;48759;52.544;13.418;2023-03-11T08:53:47;8.67;;;5.67;;
62693;SDS011;48759;52.544;13.418;2023-03-11T08:56:14;5.87;;;5.20;;
62693;SDS011;48759;52.544;13.418;2023-03-11T08:58:41;6.47;;;4.77;;
62693;SDS011;48759;52.544;13.418;2023-03-11T09:01:07;7.13;;;4.70;;
62693;SDS011;48759;52.544;13.418;2023-03-11T09:03:35;10.33;;;5.30;;
62693;SDS011;48759;52.544;13.418;2023-03-11T09:06:02;5.50;;;4.13;;
62693;SDS011;48759;52.544;13.418;2023-03-11T09:08:31;6.13;;;4.40;;
62693;SDS011;48759;52.544;13.418;2023-03-11T09:10:58;4.40;;;4.10;;
62693;SDS011;48759;52.544;13.418;2023-03-11T09:13:25;8.93;;;4.60;;
62693;SDS011;48759;52.544;13.418;2023-03-11T09:15:52;4.20;;;3.87;;
62693;SDS011;48759;52.544;13.418;2023-03-11T09:18:18;3.80;;;3.40;;
62693;SDS011;48759;52.544;13.418;2023-03-11T09:20:47;5.47;;;4.07;;
62693;SDS011;48759;52.544;13.418;2023-03-11T09:23:14;6.27;;;4.83;;
62693;SDS011;48759;52.544;13.418;2023-03-11T09:25:42;4.87;;;4.40;;
62693;SDS011;48759;52.544;13.418;2023-03-11T09:28:09;7.33;;;4.30;;
62693;SDS011;48759;52.544;13.418;2023-03-11T09:30:36;9.70;;;4.13;;
62693;SDS011;48759;52.544;13.418;2023-03-11T09:33:03;4.90;;;4.00;;
62693;SDS011;48759;52.544;13.418;2023-03-11T09:35:29;5.27;;;4.47;;
62693;SDS011;48759;52.544;13.418;2023-03-11T09:37:57;6.70;;;4.37;;
62693;SDS011;48759;52.544;13.418;2023-03-11T09:40:24;5.23;;;4.70;;
62693;SDS011;48759;52.544;13.418;2023-03-11T09:42:55;5.80;;;5.17;;
62693;SDS011;48759;52.544;13.418;2023-03-11T09:45:32;5.70;;;4.03;;
62693;SDS011;48759;52.544;13.418;2023-03-11T09:48:04;5.70;;;4.37;;
62693;SDS011;48759;52.544;13.418;2023-03-11T09:50:42;4.60;;;4.20;;
62693;SDS011;48759;52.544;13.418;2023-03-11T09:53:18;5.17;;;4.50;;
62693;SDS011;48759;52.544;13.418;2023-03-11T09:55:52;10.73;;;5.40;;
62693;SDS011;48759;52.544;13.418;2023-03-11T09:58:21;12.53;;;4.90;;
62693;SDS011;48759;52.544;13.418;2023-03-11T10:01:00;17.60;;;4.63;;
62693;SDS011;48759;52.544;13.418;2023-03-11T10:03:30;5.57;;;4.90;;
62693;SDS011;48759;52.544;13.418;2023-03-11T10:06:02;7.60;;;5.60;;
62693;SDS011;48759;52.544;13.418;2023-03-11T10:08:37;5.60;;;4.77;;
62693;SDS011;48759;52.544;13.418;2023-03-11T10:14:16;6.33;;;4.80;;
62693;SDS011;48759;52.544;13.418;2023-03-11T10:16:55;5.57;;;4.57;;
62693;SDS011;48759;52.544;13.418;2023-03-11T10:19:30;7.90;;;4.63;;
62693;SDS011;48759;52.544;13.418;2023-03-11T10:22:09;5.83;;;4.50;;
62693;SDS011;48759;52.544;13.418;2023-03-11T10:24:49;5.20;;;4.80;;
62693;SDS011;48759;52.544;13.418;2023-03-11T10:27:24;5.10;;;4.67;;
62693;SDS011;48759;52.544;13.418;2023-03-11T10:29:59;6.87;;;5.40;;
62693;SDS011;48759;52.544;13.418;2023-03-11T10:32:33;4.67;;;4.33;;
62693;SDS011;48759;52.544;13.418;2023-03-11T10:35:05;6.07;;;5.40;;
62693;SDS011;48759;52.544;13.418;2023-03-11T10:37:42;5.43;;;4.93;;
62693;SDS011;48759;52.544;13.418;2023-03-11T10:40:16;6.10;;;5.40;;
62693;SDS011;48759;52.544;13.418;2023-03-11T10:42:48;8.13;;;5.57;;
62693;SDS011;48759;52.544;13.418;2023-03-11T10:45:18;5.23;;;4.50;;
62693;SDS011;48759;52.544;13.418;2023-03-11T10:47:47;5.80;;;4.97;;
62693;SDS011;48759;52.544;13.418;2023-03-11T10:50:14;7.87;;;4.83;;
62693;SDS011;48759;52.544;13.418;2023-03-11T10:52:43;5.57;;;5.07;;
62693;SDS011;48759;52.544;13.418;2023-03-11T10:55:28;5.23;;;4.73;;
62693;SDS011;48759;52.544;13.418;2023-03-11T10:58:00;5.43;;;4.83;;
62693;SDS011;48759;52.544;13.418;2023-03-11T11:00:30;6.10;;;5.50;;
62693;SDS011;48759;52.544;13.418;2023-03-11T11:03:01;5.00;;;4.53;;
62693;SDS011;48759;52.544;13.418;2023-03-11T11:05:31;8.83;;;5.70;;
62693;SDS011;48759;52.544;13.418;2023-03-11T11:08:03;6.40;;;5.00;;
62693;SDS011;48759;52.544;13.418;2023-03-11T11:10:36;6.70;;;4.90;;
62693;SDS011;48759;52.544;13.418;2023-03-11T11:13:15;5.53;;;5.03;;
62693;SDS011;48759;52.544;13.418;2023-03-11T11:15:51;5.80;;;5.20;;
62693;SDS011;48759;52.544;13.418;2023-03-11T11:18:20;6.90;;;5.30;;
62693;SDS011;48759;52.544;13.418;2023-03-11T11:20:53;6.70;;;5.90;;
62693;SDS011;48759;52.544;13.418;2023-03-11T11:23:27;6.10;;;5.50;;
62693;SDS011;48759;52.544;13.418;2023-03-11T11:25:59;7.33;;;6.63;;
62693;SDS011;48759;52.544;13.418;2023-03-11T11:28:29;11.17;;;7.93;;
62693;SDS011;48759;52.544;13.418;2023-03-11T11:30:57;8.27;;;6.80;;
62693;SDS011;48759;52.544;13.418;2023-03-11T11:33:26;10.13;;;6.23;;
62693;SDS011;48759;52.544;13.418;2023-03-11T11:35:55;7.50;;;6.40;;
62693;SDS011;48759;52.544;13.418;2023-03-11T11:38:27;8.43;;;6.77;;
62693;SDS011;48759;52.544;13.418;2023-03-11T11:40:56;6.90;;;6.20;;
62693;SDS011;48759;52.544;13.418;2023-03-11T11:43:30;8.00;;;7.20;;
62693;SDS011;48759;52.544;13.418;2023-03-11T11:46:09;10.23;;;8.37;;
62693;SDS011;48759;52.544;13.418;2023-03-11T11:48:44;7.87;;;6.70;;
62693;SDS011;48759;52.544;13.418;2023-03-11T11:51:15;7.77;;;6.67;;
62693;SDS011;48759;52.544;13.418;2023-03-11T11:53:46;8.67;;;6.90;;
62693;SDS011;48759;52.544;13.418;2023-03-11T11:56:17;8.17;;;7.20;;
62693;SDS011;48759;52.544;13.418;2023-03-11T11:58:46;8.40;;;7.33;;
62693;SDS011;48759;52.544;13.418;2023-03-11T12:01:15;9.17;;;6.97;;
62693;SDS011;48759;52.544;13.418;2023-03-11T12:07:01;9.90;;;6.97;;
62693;SDS011;48759;52.544;13.418;2023-03-11T12:09:38;7.70;;;6.90;;
62693;SDS011;48759;52.544;13.418;2023-03-11T12:12:18;11.23;;;8.37;;
62693;SDS011;48759;52.544;13.418;2023-03-11T12:14:56;11.10;;;8.30;;
62693;SDS011;48759;52.544;13.418;2023-03-11T12:17:27;8.60;;;6.40;;
62693;SDS011;48759;52.544;13.418;2023-03-11T12:20:02;8.23;;;6.43;;
62693;SDS011;48759;52.544;13.418;2023-03-11T12:22:48;9.47;;;7.23;;
62693;SDS011;48759;52.544;13.418;2023-03-11T12:25:38;9.77;;;7.40;;
62693;SDS011;48759;52.544;13.418;2023-03-11T12:28:14;6.37;;;5.77;;
62693;SDS011;48759;52.544;13.418;2023-03-11T12:30:47;10.70;;;6.80;;
62693;SDS011;48759;52.544;13.418;2023-03-11T12:33:17;11.30;;;8.10;;
62693;SDS011;48759;52.544;13.418;2023-03-11T12:35:52;7.43;;;6.50;;
62693;SDS011;48759;52.544;13.418;2023-03-11T12:38:23;9.30;;;7.27;;
62693;SDS011;48759;52.544;13.418;2023-03-11T12:41:02;10.87;;;7.70;;
62693;SDS011;48759;52.544;13.418;2023-03-11T12:49:47;7.23;;;6.23;;
62693;SDS011;48759;52.544;13.418;2023-03-11T12:52:20;8.83;;;6.03;;
62693;SDS011;48759;52.544;13.418;2023-03-11T12:58:10;8.93;;;6.83;;
62693;SDS011;48759;52.544;13.418;2023-03-11T13:01:23;11.17;;;7.33;;
62693;SDS011;48759;52.544;13.418;2023-03-11T13:07:10;7.90;;;6.30;;
62693;SDS011;48759;52.544;13.418;2023-03-11T13:10:04;8.20;;;7.07;;
62693;SDS011;48759;52.544;13.418;2023-03-11T13:12:38;8.17;;;6.70;;
62693;SDS011;48759;52.544;13.418;2023-03-11T13:17:59;7.37;;;6.20;;
62693;SDS011;48759;52.544;13.418;2023-03-11T13:23:24;9.13;;;6.73;;
62693;SDS011;48759;52.544;13.418;2023-03-11T13:26:14;7.33;;;6.57;;
62693;SDS011;48759;52.544;13.418;2023-03-11T13:28:54;8.53;;;6.00;;
62693;SDS011;48759;52.544;13.418;2023-03-11T13:31:42;7.77;;;6.20;;
62693;SDS011;48759;52.544;13.418;2023-03-11T13:34:20;6.33;;;5.67;;
62693;SDS011;48759;52.544;13.418;2023-03-11T13:37:06;8.07;;;5.77;;
62693;SDS011;48759;52.544;13.418;2023-03-11T13:39:44;15.57;;;9.37;;
62693;SDS011;48759;52.544;13.418;2023-03-11T13:42:21;11.43;;;7.43;;
62693;SDS011;48759;52.544;13.418;2023-03-11T13:44:54;6.80;;;5.90;;
62693;SDS011;48759;52.544;13.418;2023-03-11T13:47:22;6.73;;;5.77;;
62693;SDS011;48759;52.544;13.418;2023-03-11T13:49:51;9.90;;;6.63;;
62693;SDS011;48759;52.544;13.418;2023-03-11T13:52:25;12.70;;;7.33;;
62693;SDS011;48759;52.544;13.418;2023-03-11T13:54:55;11.43;;;7.73;;
62693;SDS011;48759;52.544;13.418;2023-03-11T13:57:27;7.30;;;6.23;;
62693;SDS011;48759;52.544;13.418;2023-03-11T13:59:56;9.90;;;6.47;;
62693;SDS011;48759;52.544;13.418;2023-03-11T14:02:24;5.90;;;5.20;;
62693;SDS011;48759;52.544;13.418;2023-03-11T14:04:53;5.20;;;4.63;;
62693;SDS011;48759;52.544;13.418;2023-03-11T14:07:26;5.17;;;4.70;;
62693;SDS011;48759;52.544;13.418;2023-03-11T14:15:51;5.50;;;4.73;;
62693;SDS011;48759;52.544;13.418;2023-03-11T14:18:24;5.10;;;4.60;;
62693;SDS011;48759;52.544;13.418;2023-03-11T14:20:56;7.47;;;4.70;;
62693;SDS011;48759;52.544;13.418;2023-03-11T14:23:29;6.33;;;4.93;;
62693;SDS011;48759;52.544;13.418;2023-03-11T14:26:02;6.93;;;4.67;;
62693;SDS011;48759;52.544;13.418;2023-03-11T14:28:33;6.90;;;4.50;;
62693;SDS011;48759;52.544;13.418;2023-03-11T14:31:03;5.13;;;4.60;;
62693;SDS011;48759;52.544;13.418;2023-03-11T14:33:30;14.00;;;7.53;;
62693;SDS011;48759;52.544;13.418;2023-03-11T14:35:58;6.20;;;5.00;;
62693;SDS011;48759;52.544;13.418;2023-03-11T14:38:31;6.33;;;4.27;;
62693;SDS011;48759;52.544;13.418;2023-03-11T14:40:58;6.30;;;4.93;;
62693;SDS011;48759;52.544;13.418;2023-03-11T14:43:33;5.50;;;4.80;;
62693;SDS011;48759;52.544;13.418;2023-03-11T14:46:06;4.60;;;4.10;;
62693;SDS011;48759;52.544;13.418;2023-03-11T14:48:36;5.23;;;4.67;;
62693;SDS011;48759;52.544;13.418;2023-03-11T14:51:10;4.60;;;3.90;;
62693;SDS011;48759;52.544;13.418;2023-03-11T14:53:43;5.20;;;4.60;;
62693;SDS011;48759;52.544;13.418;2023-03-11T14:56:20;3.60;;;3.33;;
62693;SDS011;48759;52.544;13.418;2023-03-11T14:58:50;4.40;;;4.00;;
62693;SDS011;48759;52.544;13.418;2023-03-11T15:01:29;6.17;;;4.83;;
62693;SDS011;48759;52.544;13.418;2023-03-11T15:04:04;4.60;;;4.20;;
62693;SDS011;48759;52.544;13.418;2023-03-11T15:06:39;4.37;;;3.97;;
62693;SDS011;48759;52.544;13.418;2023-03-11T15:09:13;6.10;;;4.50;;
62693;SDS011;48759;52.544;13.418;2023-03-11T15:11:45;4.00;;;3.60;;
62693;SDS011;48759;52.544;13.418;2023-03-11T15:14:16;4.93;;;4.23;;
62693;SDS011;48759;52.544;13.418;2023-03-11T15:16:46;4.97;;;4.50;;
62693;SDS011;48759;52.544;13.418;2023-03-11T15:19:20;5.00;;;4.50;;